createdAt,value
2023-01-17T00:01:34.031Z,100.00
2023-01-17T00:04:20.101Z,100.00
2023-01-17T00:07:07.156Z,100.00
2023-01-17T00:09:52.442Z,100.00
2023-01-17T00:12:21.058Z,100.00
2023-01-17T00:14:49.556Z,100.00
2023-01-17T00:17:17.591Z,100.00
2023-01-17T00:20:02.831Z,100.00
2023-01-17T00:22:50.290Z,100.00
2023-01-17T00:25:37.141Z,100.00
2023-01-17T00:28:05.030Z,100.00
2023-01-17T00:30:32.201Z,100.00
2023-01-17T00:32:59.648Z,100.00
2023-01-17T00:35:28.867Z,100.00
2023-01-17T00:38:05.212Z,100.00
2023-01-17T00:40:32.389Z,100.00
2023-01-17T00:43:17.591Z,100.00
2023-01-17T00:46:03.514Z,100.00
2023-01-17T00:48:51.072Z,100.00
2023-01-17T00:51:37.532Z,100.00
2023-01-17T00:54:24.495Z,100.00
2023-01-17T00:57:10.303Z,100.00
2023-01-17T00:59:55.728Z,100.00
2023-01-17T01:02:41.753Z,100.00
2023-01-17T01:05:27.390Z,100.00
2023-01-17T01:08:12.885Z,100.00
2023-01-17T01:11:00.000Z,100.00
2023-01-17T01:13:47.917Z,100.00
2023-01-17T01:16:34.237Z,100.00
2023-01-17T01:19:20.309Z,100.00
2023-01-17T01:22:06.081Z,100.00
2023-01-17T01:24:51.279Z,100.00
2023-01-17T01:27:38.325Z,100.00
2023-01-17T01:30:24.807Z,100.00
2023-01-17T01:33:10.317Z,100.00
2023-01-17T01:35:38.341Z,100.00
2023-01-17T01:38:06.358Z,100.00
2023-01-17T01:40:34.362Z,100.00
2023-01-17T01:43:05.989Z,100.00
2023-01-17T01:45:34.242Z,100.00
2023-01-17T01:48:05.553Z,100.00
2023-01-17T01:50:35.635Z,100.00
2023-01-17T01:53:07.222Z,100.00
2023-01-17T01:55:38.982Z,100.00
2023-01-17T01:58:14.389Z,100.00
2023-01-17T02:00:43.207Z,100.00
2023-01-17T02:03:14.962Z,100.00
2023-01-17T02:05:44.625Z,100.00
2023-01-17T02:08:16.619Z,100.00
2023-01-17T02:10:45.139Z,100.00
2023-01-17T02:13:17.525Z,100.00
2023-01-17T02:15:56.117Z,100.00
2023-01-17T02:18:34.805Z,100.00
2023-01-17T02:21:24.558Z,100.00
2023-01-17T02:24:17.042Z,100.00
2023-01-17T02:26:55.127Z,100.00
2023-01-17T02:29:57.615Z,100.00
2023-01-17T02:32:39.210Z,100.00
2023-01-17T02:35:14.922Z,100.00
2023-01-17T02:37:51.838Z,100.00
2023-01-17T02:40:26.329Z,100.00
2023-01-17T02:42:59.324Z,100.00
2023-01-17T02:45:27.408Z,100.00
2023-01-17T02:47:56.733Z,100.00
2023-01-17T02:50:28.554Z,100.00
2023-01-17T02:53:15.970Z,100.00
2023-01-17T02:55:55.332Z,100.00
2023-01-17T02:58:41.666Z,100.00
2023-01-17T03:01:19.823Z,100.00
2023-01-17T03:03:54.465Z,100.00
2023-01-17T03:06:28.169Z,100.00
2023-01-17T03:08:56.160Z,100.00
2023-01-17T03:11:24.331Z,100.00
2023-01-17T03:13:56.850Z,100.00
2023-01-17T03:16:27.076Z,100.00
2023-01-17T03:18:56.394Z,100.00
2023-01-17T03:21:25.193Z,100.00
2023-01-17T03:23:53.717Z,100.00
2023-01-17T03:26:21.732Z,100.00
2023-01-17T03:28:49.705Z,100.00
2023-01-17T03:31:18.307Z,100.00
2023-01-17T03:33:46.490Z,100.00
2023-01-17T03:36:15.929Z,100.00
2023-01-17T03:38:43.821Z,100.00
2023-01-17T03:41:11.780Z,100.00
2023-01-17T03:43:39.810Z,100.00
2023-01-17T03:46:09.617Z,100.00
2023-01-17T03:48:37.605Z,100.00
2023-01-17T03:51:05.674Z,100.00
2023-01-17T03:53:34.995Z,100.00
2023-01-17T03:56:02.967Z,100.00
2023-01-17T03:58:30.971Z,100.00
2023-01-17T04:00:58.942Z,100.00
2023-01-17T04:03:27.136Z,100.00
2023-01-17T04:05:55.037Z,100.00
2023-01-17T04:08:23.204Z,100.00
2023-01-17T04:10:52.511Z,100.00
2023-01-17T04:13:20.445Z,100.00
2023-01-17T04:15:51.047Z,100.00
2023-01-17T04:18:21.103Z,100.00
2023-01-17T04:20:49.211Z,100.00
2023-01-17T04:23:17.164Z,100.00
2023-01-17T04:25:45.124Z,100.00
2023-01-17T04:28:14.628Z,100.00
2023-01-17T04:30:42.634Z,100.00
2023-01-17T04:33:10.580Z,100.00
2023-01-17T04:35:38.623Z,100.00
2023-01-17T04:38:06.647Z,100.00
2023-01-17T04:40:34.698Z,100.00
2023-01-17T04:43:02.636Z,100.00
2023-01-17T04:45:31.990Z,100.00
2023-01-17T04:48:05.098Z,100.00
2023-01-17T04:50:33.773Z,100.00
2023-01-17T04:53:02.028Z,100.00
2023-01-17T04:55:29.932Z,100.00
2023-01-17T04:57:58.001Z,100.00
2023-01-17T05:00:26.144Z,100.00
2023-01-17T05:02:55.689Z,100.00
2023-01-17T05:05:23.892Z,100.00
2023-01-17T05:07:55.752Z,100.00
2023-01-17T05:10:24.069Z,100.00
2023-01-17T05:12:56.052Z,100.00
2023-01-17T05:15:24.303Z,100.00
2023-01-17T05:17:52.890Z,100.00
2023-01-17T05:20:23.191Z,100.00
2023-01-17T05:22:55.591Z,100.00
2023-01-17T05:25:24.272Z,100.00
2023-01-17T05:27:52.342Z,100.00
2023-01-17T05:30:21.222Z,100.00
2023-01-17T05:32:50.528Z,100.00
2023-01-17T05:35:19.761Z,100.00
2023-01-17T05:37:51.122Z,100.00
2023-01-17T05:40:19.918Z,100.00
2023-01-17T05:42:48.245Z,100.00
2023-01-17T05:45:17.769Z,100.00
2023-01-17T05:47:46.653Z,100.00
2023-01-17T05:50:16.367Z,100.00
2023-01-17T05:52:52.568Z,100.00
2023-01-17T05:55:21.691Z,100.00
2023-01-17T05:57:50.309Z,100.00
2023-01-17T06:00:20.026Z,100.00
2023-01-17T06:02:48.919Z,100.00
2023-01-17T06:05:17.883Z,100.00
2023-01-17T06:07:46.647Z,100.00
2023-01-17T06:10:17.040Z,100.00
2023-01-17T06:12:46.113Z,100.00
2023-01-17T06:15:16.549Z,100.00
2023-01-17T06:17:44.860Z,100.00
2023-01-17T06:20:13.955Z,100.00
2023-01-17T06:22:42.053Z,100.00
2023-01-17T06:25:10.422Z,100.00
2023-01-17T06:27:39.814Z,100.00
2023-01-17T06:30:08.991Z,100.00
2023-01-17T06:32:36.891Z,100.00
2023-01-17T06:35:05.153Z,100.00
2023-01-17T06:37:33.050Z,100.00
2023-01-17T06:40:00.998Z,100.00
2023-01-17T06:42:29.161Z,100.00
2023-01-17T06:44:58.373Z,100.00
2023-01-17T06:47:26.292Z,100.00
2023-01-17T06:49:54.206Z,100.00
2023-01-17T06:52:22.064Z,100.00
2023-01-17T06:54:50.178Z,100.00
2023-01-17T06:57:18.060Z,100.00
2023-01-17T06:59:46.400Z,100.00
2023-01-17T07:02:15.693Z,100.00
2023-01-17T07:04:43.628Z,100.00
2023-01-17T07:07:11.591Z,100.00
2023-01-17T07:09:39.745Z,100.00
2023-01-17T07:12:08.178Z,100.00
2023-01-17T07:14:36.114Z,100.00
2023-01-17T07:17:05.624Z,100.00
2023-01-17T07:19:35.100Z,100.00
2023-01-17T07:22:03.024Z,100.00
2023-01-17T07:24:30.982Z,100.00
2023-01-17T07:26:58.973Z,100.00
2023-01-17T07:29:26.897Z,100.00
2023-01-17T07:31:54.895Z,100.00
2023-01-17T07:34:22.831Z,100.00
2023-01-17T07:36:54.459Z,100.00
2023-01-17T07:39:22.619Z,100.00
2023-01-17T07:41:50.618Z,100.00
2023-01-17T07:44:18.627Z,100.00
2023-01-17T07:46:46.662Z,100.00
2023-01-17T07:49:15.112Z,100.00
2023-01-17T07:51:43.023Z,100.00
2023-01-17T07:54:14.013Z,100.00
2023-01-17T07:56:45.546Z,100.00
2023-01-17T07:59:13.522Z,100.00
2023-01-17T08:01:41.614Z,100.00
2023-01-17T08:04:10.492Z,100.00
2023-01-17T08:06:40.717Z,100.00
2023-01-17T08:09:08.630Z,100.00
2023-01-17T08:11:37.960Z,100.00
2023-01-17T08:14:06.110Z,100.00
2023-01-17T08:16:34.034Z,100.00
2023-01-17T08:19:02.080Z,99.88
2023-01-17T08:21:29.977Z,100.00
2023-01-17T08:23:57.913Z,99.37
2023-01-17T08:26:25.763Z,99.24
2023-01-17T08:29:00.159Z,100.00
2023-01-17T08:31:28.338Z,99.04
2023-01-17T08:33:57.572Z,98.41
2023-01-17T08:36:27.647Z,98.37
2023-01-17T08:38:56.153Z,97.80
2023-01-17T08:41:27.485Z,98.32
2023-01-17T08:43:56.820Z,97.59
2023-01-17T08:46:25.156Z,96.45
2023-01-17T08:48:55.802Z,96.38
2023-01-17T08:51:26.444Z,98.08
2023-01-17T08:53:54.835Z,98.73
2023-01-17T08:56:23.775Z,98.74
2023-01-17T08:58:51.800Z,99.34
2023-01-17T09:01:21.166Z,100.00
2023-01-17T09:03:51.439Z,100.00
2023-01-17T09:06:19.413Z,99.84
2023-01-17T09:08:49.651Z,99.36
2023-01-17T09:11:18.703Z,99.26
2023-01-17T09:13:46.653Z,98.28
2023-01-17T09:16:14.670Z,98.32
2023-01-17T09:18:44.055Z,98.21
2023-01-17T09:21:13.259Z,99.48
2023-01-17T09:23:41.903Z,100.00
2023-01-17T09:26:20.249Z,100.00
2023-01-17T09:28:48.536Z,100.00
2023-01-17T09:31:17.653Z,100.00
2023-01-17T09:33:47.528Z,100.00
2023-01-17T09:36:15.646Z,100.00
2023-01-17T09:38:43.956Z,100.00
2023-01-17T09:41:27.678Z,100.00
2023-01-17T09:44:01.217Z,100.00
2023-01-17T09:46:33.729Z,100.00
2023-01-17T09:49:09.375Z,100.00
2023-01-17T09:51:38.199Z,100.00
2023-01-17T09:54:06.605Z,100.00
2023-01-17T09:56:42.035Z,100.00
2023-01-17T09:59:32.299Z,100.00
2023-01-17T10:02:15.053Z,100.00
2023-01-17T10:04:59.967Z,98.16
2023-01-17T10:07:41.892Z,99.09
2023-01-17T10:10:22.890Z,99.31
2023-01-17T10:12:59.356Z,97.14
2023-01-17T10:15:41.320Z,95.50
2023-01-17T10:18:30.502Z,94.41
2023-01-17T10:21:07.266Z,93.17
2023-01-17T10:24:04.128Z,92.92
2023-01-17T10:26:34.995Z,91.99
2023-01-17T10:29:06.190Z,91.81
2023-01-17T10:31:41.643Z,92.18
2023-01-17T10:34:18.243Z,92.05
2023-01-17T10:36:51.312Z,91.71
2023-01-17T10:39:22.508Z,91.10
2023-01-17T10:41:56.378Z,91.37
2023-01-17T10:44:30.960Z,90.08
2023-01-17T10:47:13.623Z,90.30
2023-01-17T10:49:46.378Z,91.45
2023-01-17T10:52:22.071Z,89.78
2023-01-17T10:55:04.112Z,90.38
2023-01-17T10:57:39.444Z,91.86
2023-01-17T11:00:27.381Z,93.02
2023-01-17T11:02:55.861Z,93.00
2023-01-17T11:05:26.660Z,92.51
2023-01-17T11:08:06.534Z,92.53
2023-01-17T11:10:40.954Z,92.57
2023-01-17T11:13:23.635Z,93.26
2023-01-17T11:15:54.027Z,91.61
2023-01-17T11:18:22.912Z,92.93
2023-01-17T11:20:50.964Z,91.96
2023-01-17T11:23:23.603Z,91.04
2023-01-17T11:25:53.463Z,91.51
2023-01-17T11:28:26.278Z,90.37
2023-01-17T11:30:56.616Z,89.39
2023-01-17T11:33:47.420Z,89.62
2023-01-17T11:36:18.960Z,88.80
2023-01-17T11:39:06.998Z,88.67
2023-01-17T11:41:37.656Z,88.77
2023-01-17T11:44:23.270Z,89.61
2023-01-17T11:47:09.850Z,89.03
2023-01-17T11:49:37.925Z,88.81
2023-01-17T11:52:10.422Z,89.28
2023-01-17T11:54:42.557Z,90.24
2023-01-17T11:57:21.767Z,89.46
2023-01-17T11:59:50.232Z,89.19
2023-01-17T12:02:43.743Z,89.74
2023-01-17T12:05:44.689Z,88.92
2023-01-17T12:08:23.589Z,87.72
2023-01-17T12:11:04.017Z,87.36
2023-01-17T12:14:02.087Z,87.09
2023-01-17T12:16:57.328Z,85.95
2023-01-17T12:19:53.603Z,86.00
2023-01-17T12:22:37.766Z,86.41
2023-01-17T12:25:24.434Z,87.88
2023-01-17T12:28:11.468Z,90.10
2023-01-17T12:30:52.486Z,92.34
2023-01-17T12:33:27.926Z,91.92
2023-01-17T12:36:00.156Z,91.79
2023-01-17T12:38:35.806Z,92.55
2023-01-17T12:41:11.314Z,91.98
2023-01-17T12:43:42.660Z,93.26
2023-01-17T12:46:20.856Z,92.76
2023-01-17T12:48:55.509Z,92.52
2023-01-17T12:51:29.499Z,91.87
2023-01-17T12:54:03.031Z,91.77
2023-01-17T12:56:35.072Z,91.22
2023-01-17T12:59:15.278Z,92.75
2023-01-17T13:01:57.789Z,93.00
2023-01-17T13:04:29.600Z,92.90
2023-01-17T13:07:07.675Z,92.74
2023-01-17T13:09:43.232Z,92.63
2023-01-17T13:12:15.216Z,92.14
2023-01-17T13:14:47.465Z,92.15
2023-01-17T13:17:27.795Z,90.40
2023-01-17T13:20:02.076Z,89.66
2023-01-17T13:22:31.965Z,89.16
2023-01-17T13:25:13.819Z,88.83
2023-01-17T13:28:12.813Z,88.44
2023-01-17T13:31:11.392Z,86.90
2023-01-17T13:33:58.985Z,86.48
2023-01-17T13:36:50.602Z,87.92
2023-01-17T13:39:55.791Z,90.18
2023-01-17T13:42:30.129Z,89.88
2023-01-17T13:44:59.041Z,90.38
2023-01-17T13:47:41.597Z,90.93
2023-01-17T13:50:48.023Z,89.92
2023-01-17T13:53:56.212Z,89.43
2023-01-17T13:56:35.822Z,89.47
2023-01-17T13:59:28.250Z,88.78
2023-01-17T14:01:57.114Z,91.31
2023-01-17T14:04:47.081Z,90.74
2023-01-17T14:07:26.635Z,90.18
2023-01-17T14:09:54.927Z,89.37
2023-01-17T14:12:36.599Z,89.66
2023-01-17T14:15:20.517Z,90.86
2023-01-17T14:17:55.708Z,89.58
2023-01-17T14:20:54.127Z,89.13
2023-01-17T14:23:54.558Z,88.28
2023-01-17T14:26:51.815Z,88.80
2023-01-17T14:29:47.082Z,89.65
2023-01-17T14:32:17.830Z,89.35
2023-01-17T14:34:47.974Z,87.98
2023-01-17T14:37:27.294Z,88.35
2023-01-17T14:39:55.248Z,87.99
2023-01-17T14:42:26.461Z,88.18
2023-01-17T14:45:00.272Z,88.89
2023-01-17T14:47:32.287Z,89.30
2023-01-17T14:50:21.705Z,89.51
2023-01-17T14:53:08.379Z,88.84
2023-01-17T14:55:36.679Z,88.48
2023-01-17T14:58:04.728Z,90.89
2023-01-17T15:00:35.033Z,91.42
2023-01-17T15:03:04.177Z,90.99
2023-01-17T15:05:33.721Z,89.56
2023-01-17T15:08:06.210Z,88.85
2023-01-17T15:10:35.272Z,89.18
2023-01-17T15:13:10.121Z,90.96
2023-01-17T15:15:40.198Z,91.28
2023-01-17T15:18:29.547Z,93.06
2023-01-17T15:21:02.152Z,92.31
2023-01-17T15:23:34.680Z,91.76
2023-01-17T15:26:04.403Z,92.34
2023-01-17T15:28:33.852Z,92.47
2023-01-17T15:31:05.012Z,94.01
2023-01-17T15:33:34.148Z,93.53
2023-01-17T15:36:04.298Z,94.09
2023-01-17T15:38:38.996Z,94.44
2023-01-17T15:41:14.682Z,93.76
2023-01-17T15:43:46.046Z,93.51
2023-01-17T15:46:26.884Z,93.55
2023-01-17T15:48:54.958Z,93.72
2023-01-17T15:51:34.564Z,93.79
2023-01-17T15:54:42.155Z,92.89
2023-01-17T15:57:20.849Z,92.16
2023-01-17T15:59:53.882Z,93.80
2023-01-17T16:02:55.164Z,94.77
2023-01-17T16:05:38.789Z,94.63
2023-01-17T16:08:32.407Z,94.47
2023-01-17T16:11:03.150Z,95.15
2023-01-17T16:13:33.318Z,95.77
2023-01-17T16:16:19.133Z,95.25
2023-01-17T16:18:48.740Z,94.11
2023-01-17T16:21:27.681Z,93.48
2023-01-17T16:23:56.437Z,94.74
2023-01-17T16:26:25.912Z,96.45
2023-01-17T16:28:53.896Z,95.29
2023-01-17T16:31:21.977Z,94.50
2023-01-17T16:33:51.125Z,95.07
2023-01-17T16:36:21.214Z,93.88
2023-01-17T16:38:51.557Z,94.85
2023-01-17T16:41:20.538Z,94.74
2023-01-17T16:43:58.802Z,94.73
2023-01-17T16:46:27.147Z,95.52
2023-01-17T16:48:55.275Z,95.66
2023-01-17T16:51:23.350Z,95.21
2023-01-17T16:53:51.381Z,95.27
2023-01-17T16:56:20.391Z,94.75
2023-01-17T16:58:48.457Z,94.63
2023-01-17T17:01:21.266Z,96.34
2023-01-17T17:03:49.791Z,96.64
2023-01-17T17:06:18.205Z,97.53
2023-01-17T17:08:46.152Z,97.59
2023-01-17T17:11:16.552Z,96.16
2023-01-17T17:13:46.032Z,96.49
2023-01-17T17:16:20.148Z,95.52
2023-01-17T17:18:55.262Z,98.28
2023-01-17T17:21:23.432Z,97.54
2023-01-17T17:23:56.737Z,97.19
2023-01-17T17:26:26.714Z,96.87
2023-01-17T17:28:55.204Z,96.69
2023-01-17T17:31:24.966Z,96.17
2023-01-17T17:33:53.020Z,95.44
2023-01-17T17:36:21.095Z,95.45
2023-01-17T17:38:51.876Z,94.93
2023-01-17T17:41:21.938Z,94.44
2023-01-17T17:43:51.332Z,94.48
2023-01-17T17:46:20.715Z,94.22
2023-01-17T17:48:50.356Z,96.66
2023-01-17T17:51:26.419Z,96.11
2023-01-17T17:53:55.347Z,96.90
2023-01-17T17:56:23.670Z,97.00
2023-01-17T17:58:52.012Z,96.97
2023-01-17T18:01:22.849Z,96.48
2023-01-17T18:03:52.704Z,99.86
2023-01-17T18:06:21.591Z,100.00
2023-01-17T18:08:52.032Z,100.00
2023-01-17T18:11:22.669Z,99.21
2023-01-17T18:13:51.841Z,98.72
2023-01-17T18:16:21.546Z,100.00
2023-01-17T18:18:52.740Z,100.00
2023-01-17T18:21:23.933Z,100.00
2023-01-17T18:23:54.697Z,100.00
2023-01-17T18:26:25.545Z,100.00
2023-01-17T18:28:54.282Z,100.00
2023-01-17T18:31:24.149Z,100.00
2023-01-17T18:33:54.162Z,100.00
2023-01-17T18:36:23.376Z,100.00
2023-01-17T18:38:53.140Z,100.00
2023-01-17T18:41:22.999Z,100.00
2023-01-17T18:43:51.319Z,100.00
2023-01-17T18:46:21.278Z,100.00
2023-01-17T18:48:49.639Z,100.00
2023-01-17T18:51:20.585Z,100.00
2023-01-17T18:53:49.746Z,100.00
2023-01-17T18:56:20.282Z,100.00
2023-01-17T18:58:49.998Z,100.00
2023-01-17T19:01:20.368Z,100.00
2023-01-17T19:03:50.039Z,100.00
2023-01-17T19:06:22.691Z,100.00
2023-01-17T19:08:51.900Z,100.00
2023-01-17T19:11:20.901Z,100.00
2023-01-17T19:13:50.329Z,100.00
2023-01-17T19:16:21.056Z,100.00
2023-01-17T19:18:49.008Z,100.00
2023-01-17T19:21:20.371Z,100.00
2023-01-17T19:23:48.774Z,100.00
2023-01-17T19:26:17.630Z,100.00
2023-01-17T19:28:47.115Z,100.00
2023-01-17T19:31:17.186Z,100.00
2023-01-17T19:33:46.879Z,100.00
2023-01-17T19:36:18.517Z,100.00
2023-01-17T19:39:02.968Z,100.00
2023-01-17T19:41:32.075Z,100.00
2023-01-17T19:44:02.306Z,100.00
2023-01-17T19:46:30.563Z,100.00
2023-01-17T19:48:59.597Z,100.00
2023-01-17T19:51:28.428Z,100.00
2023-01-17T19:53:59.185Z,100.00
2023-01-17T19:56:27.829Z,100.00
2023-01-17T19:59:00.635Z,100.00
2023-01-17T20:01:30.630Z,100.00
2023-01-17T20:03:59.431Z,100.00
2023-01-17T20:06:29.302Z,100.00
2023-01-17T20:08:59.164Z,99.16
2023-01-17T20:11:28.043Z,98.78
2023-01-17T20:13:58.046Z,98.91
2023-01-17T20:16:28.191Z,99.00
2023-01-17T20:18:56.602Z,99.00
2023-01-17T20:21:26.636Z,98.36
2023-01-17T20:23:56.031Z,97.86
2023-01-17T20:26:31.143Z,96.64
2023-01-17T20:28:59.140Z,95.91
2023-01-17T20:31:27.454Z,96.50
2023-01-17T20:33:57.188Z,95.63
2023-01-17T20:36:26.600Z,96.35
2023-01-17T20:38:54.682Z,96.60
2023-01-17T20:41:26.111Z,91.84
2023-01-17T20:43:55.604Z,92.27
2023-01-17T20:46:25.710Z,91.12
2023-01-17T20:48:55.441Z,89.76
2023-01-17T20:51:26.406Z,89.01
2023-01-17T20:53:56.071Z,87.33
2023-01-17T20:56:26.775Z,85.29
2023-01-17T20:58:56.109Z,85.19
2023-01-17T21:01:24.621Z,85.52
2023-01-17T21:03:54.048Z,86.32
2023-01-17T21:06:23.448Z,85.96
2023-01-17T21:08:52.671Z,83.36
2023-01-17T21:11:22.048Z,80.46
2023-01-17T21:13:51.830Z,80.75
2023-01-17T21:16:22.987Z,78.89
2023-01-17T21:18:52.814Z,80.45
2023-01-17T21:21:22.993Z,81.57
2023-01-17T21:23:52.377Z,82.19
2023-01-17T21:26:21.710Z,82.90
2023-01-17T21:28:51.688Z,83.13
2023-01-17T21:31:23.997Z,83.95
2023-01-17T21:33:54.047Z,84.73
2023-01-17T21:36:23.894Z,84.61
2023-01-17T21:38:53.064Z,84.87
2023-01-17T21:41:21.547Z,85.50
2023-01-17T21:43:54.257Z,87.34
2023-01-17T21:46:22.267Z,88.62
2023-01-17T21:48:50.392Z,90.26
2023-01-17T21:51:19.526Z,92.25
2023-01-17T21:53:47.566Z,92.43
2023-01-17T21:56:33.468Z,93.24
2023-01-17T21:59:03.045Z,95.56
2023-01-17T22:01:34.302Z,96.18
2023-01-17T22:04:04.732Z,95.43
2023-01-17T22:06:35.433Z,94.95
2023-01-17T22:09:04.793Z,96.59
2023-01-17T22:11:32.967Z,98.25
2023-01-17T22:14:04.900Z,98.72
2023-01-17T22:16:33.270Z,98.99
2023-01-17T22:19:01.211Z,98.98
2023-01-17T22:21:29.746Z,98.73
2023-01-17T22:23:59.538Z,97.44
2023-01-17T22:26:29.640Z,96.50
2023-01-17T22:29:02.356Z,96.16
2023-01-17T22:31:30.522Z,95.06
2023-01-17T22:34:00.655Z,94.81
2023-01-17T22:36:28.893Z,94.96
2023-01-17T22:38:57.166Z,95.34
2023-01-17T22:41:27.982Z,96.59
2023-01-17T22:43:58.650Z,96.93
2023-01-17T22:46:30.225Z,95.75
2023-01-17T22:48:58.816Z,96.09
2023-01-17T22:51:28.789Z,94.04
2023-01-17T22:53:59.095Z,94.29
2023-01-17T22:56:29.749Z,94.15
2023-01-17T22:58:58.467Z,94.19
2023-01-17T23:01:29.234Z,94.72
2023-01-17T23:03:58.964Z,95.03
2023-01-17T23:06:28.803Z,96.02
2023-01-17T23:08:59.309Z,95.21
2023-01-17T23:11:46.321Z,94.64
2023-01-17T23:14:18.026Z,93.49
2023-01-17T23:17:06.776Z,91.26
2023-01-17T23:19:36.858Z,92.69
2023-01-17T23:22:20.258Z,92.46
2023-01-17T23:24:51.561Z,92.71
2023-01-17T23:27:39.519Z,92.91
2023-01-17T23:30:11.525Z,92.96
2023-01-17T23:32:41.666Z,93.19
2023-01-17T23:35:09.947Z,92.73
2023-01-17T23:37:55.445Z,92.67
2023-01-17T23:40:23.935Z,92.21
2023-01-17T23:43:09.597Z,92.98
2023-01-17T23:45:38.773Z,94.09
2023-01-17T23:48:10.805Z,94.43
2023-01-17T23:50:39.677Z,94.89
2023-01-17T23:53:08.062Z,94.17
2023-01-17T23:55:37.419Z,94.23
2023-01-17T23:58:06.025Z,95.03
